Waverunner — ZCTE7 — position and weather

sailwx.info

Track history (hours):
 
Tides and Currents Weather Stations Pressure Air Temp Water Temp Dewpoint Dewpoint Depression Visibility Wind Speed Wind Dir Waves Ship Positions

Waverunner

Last reported at 2016-Sep-10 04:15 UTC. Time now 2016-Dec-07 12:34 UTC.
Position N 42°34' E 008°19'.
Warning: this ship's position is months out of date.

Length 41 m; draft 2 m.

MMSI: 319804000.

Date/timePositionNaut miles runAvg speedWind from/ knotsBaromVisibWave heightAir tempDewpointWater temp
2016-Sep-10 04:15N 42°34' E 008°19'912.6
2016-Sep-10 03:33N 42°42' E 008°13'6712.9
2016-Sep-09 22:22N 43°40' E 007°30'5 0.5
2016-Sep-09 12:27N 43°45' E 007°27'0 0.0
2016-Sep-09 11:19N 43°45' E 007°27'0 0.0
2016-Sep-09 10:30N 43°45' E 007°27'6 6.3
2016-Sep-09 09:29N 43°40' E 007°20'1212.9
2016-Sep-09 08:33N 43°32' E 007°08'2 2.0
2016-Sep-09 07:33N 43°34' E 007°06'0 0.0
2016-Sep-09 06:33N 43°34' E 007°06'0 0.0
2016-Sep-09 05:33N 43°34' E 007°06'0 0.0
2016-Sep-09 04:33N 43°34' E 007°06'0 0.0
2016-Sep-09 03:33N 43°34' E 007°06'0 0.0
2016-Sep-09 02:33N 43°34' E 007°06'0 0.0
2016-Sep-09 01:33N 43°34' E 007°06'0 0.0
2016-Sep-09 00:33N 43°34' E 007°06'0 0.0
2016-Sep-08 23:33N 43°34' E 007°06'0 0.0
2016-Sep-08 22:33N 43°34' E 007°06'0 0.0
2016-Sep-08 21:33N 43°34' E 007°06'0 0.0
2016-Sep-08 20:33N 43°34' E 007°06'0 0.0
2016-Sep-08 19:33N 43°34' E 007°06'0 0.0
2016-Sep-08 18:33N 43°34' E 007°06'0 0.0
2016-Sep-08 17:33N 43°34' E 007°06'0 0.0
2016-Sep-08 16:33N 43°34' E 007°06'0 0.0
2016-Sep-08 15:34N 43°34' E 007°06'0 0.0
2016-Sep-08 14:33N 43°34' E 007°06'0 0.0
2016-Sep-08 13:33N 43°34' E 007°06'0 0.0
2016-Sep-08 12:33N 43°34' E 007°06'0 0.0
2016-Sep-08 11:33N 43°34' E 007°06'0 0.0
2016-Sep-08 10:33N 43°34' E 007°06'0 0.0
2016-Sep-08 09:33N 43°34' E 007°06'0 0.0
2016-Sep-08 08:33N 43°34' E 007°06'0 0.0
2016-Sep-08 07:33N 43°34' E 007°06'0 0.0
2016-Sep-08 06:33N 43°34' E 007°06'0 0.0
2016-Sep-08 05:33N 43°34' E 007°06'0 0.0
2016-Sep-08 04:33N 43°34' E 007°06'0 0.0
2016-Sep-08 03:33N 43°34' E 007°06'0 0.0
2016-Sep-08 02:33N 43°34' E 007°06'0 0.0
2016-Sep-08 01:33N 43°34' E 007°06'0 0.0
2016-Sep-08 00:34N 43°34' E 007°06'0 0.0
2016-Sep-07 23:33N 43°34' E 007°06'0 0.0
2016-Sep-07 22:33N 43°34' E 007°06'0 0.0
2016-Sep-07 21:33N 43°34' E 007°06'0 0.0
2016-Sep-07 20:33N 43°34' E 007°06'0 0.0
2016-Sep-07 19:33N 43°34' E 007°06'0 0.0
2016-Sep-07 18:33N 43°34' E 007°06'0 0.0
2016-Sep-07 17:33N 43°34' E 007°06'0 0.0
2016-Sep-07 16:33N 43°34' E 007°06'0 0.0
2016-Sep-07 15:33N 43°34' E 007°06'0 0.0
2016-Sep-07 14:33N 43°34' E 007°06'0 0.0
2016-Sep-07 13:33N 43°34' E 007°06'0 0.0
2016-Sep-07 12:33N 43°34' E 007°06'0 0.0
2016-Sep-07 11:33N 43°34' E 007°06'0 0.0
2016-Sep-07 10:33N 43°34' E 007°06'2 2.3
2016-Sep-07 09:33N 43°35' E 007°09'3 3.3
2016-Sep-07 08:33N 43°34' E 007°05'0 0.0
2016-Sep-07 07:33N 43°34' E 007°05'0 0.0
2016-Sep-07 06:33N 43°34' E 007°05'0 0.0
2016-Sep-07 04:33N 43°34' E 007°05'0 0.0
2016-Sep-07 03:33N 43°34' E 007°05'0 0.0
2016-Sep-07 02:33N 43°34' E 007°05'0 0.0
2016-Sep-07 01:33N 43°34' E 007°05'0 0.0
2016-Sep-07 00:33N 43°34' E 007°05'0 0.0
2016-Sep-06 23:33N 43°34' E 007°05'0 0.0
2016-Sep-06 22:33N 43°34' E 007°05'0 0.0
2016-Sep-06 21:33N 43°34' E 007°05'0 0.0
2016-Sep-06 20:33N 43°34' E 007°05'0 0.0
2016-Sep-06 19:33N 43°34' E 007°05'0 0.0
2016-Sep-06 18:33N 43°34' E 007°05'0 0.0
2016-Sep-06 17:33N 43°34' E 007°05'0 0.0
2016-Sep-06 16:33N 43°34' E 007°05'0 0.0
2016-Sep-06 15:33N 43°34' E 007°05'0 0.0
2016-Sep-06 14:33N 43°34' E 007°05'0 0.0
2016-Sep-06 13:33N 43°34' E 007°05'0 0.0
2016-Sep-06 12:33N 43°34' E 007°05'0 0.0
2016-Sep-06 11:33N 43°34' E 007°05'0 0.0
2016-Sep-06 10:34N 43°34' E 007°05'0 0.0
2016-Sep-06 09:33N 43°34' E 007°05'0 0.0
2016-Sep-06 08:33N 43°34' E 007°05'0 0.0
2016-Sep-06 07:33N 43°34' E 007°05'0 0.0
2016-Sep-06 06:33N 43°34' E 007°05'0 0.0
2016-Sep-06 04:33N 43°34' E 007°05'0 0.0
2016-Sep-06 03:33N 43°34' E 007°05'0 0.0
2016-Sep-06 02:33N 43°34' E 007°05'0 0.0
2016-Sep-06 01:33N 43°34' E 007°05'0 0.0
2016-Sep-06 00:33N 43°34' E 007°05'0 0.0
2016-Sep-05 23:33N 43°34' E 007°05'0 0.0
2016-Sep-05 22:33N 43°34' E 007°05'0 0.0
2016-Sep-05 21:33N 43°34' E 007°05'0 0.0
2016-Sep-05 20:33N 43°34' E 007°05'0 0.0
2016-Sep-05 19:33N 43°34' E 007°05'0 0.0
2016-Sep-05 18:33N 43°34' E 007°05'0 0.0
2016-Sep-05 17:33N 43°34' E 007°05'0 0.0
2016-Sep-05 16:33N 43°34' E 007°05'0 0.0
2016-Sep-05 15:33N 43°34' E 007°05'0 0.0
2016-Sep-05 14:33N 43°34' E 007°05'0 0.0
2016-Sep-05 13:33N 43°34' E 007°05'0 0.0
2016-Sep-05 12:33N 43°34' E 007°05'0 0.0
2016-Sep-05 11:33N 43°34' E 007°05'0 0.0
2016-Sep-05 10:33N 43°34' E 007°05'0 0.0
2016-Sep-05 09:33N 43°34' E 007°05'0 0.0
2016-Sep-05 08:33N 43°34' E 007°05'0 0.0
2016-Sep-05 07:33N 43°34' E 007°05'0 0.0
2016-Sep-05 06:33N 43°34' E 007°05'0 0.0
2016-Sep-05 04:33N 43°34' E 007°05'0 0.0
2016-Sep-05 03:33N 43°34' E 007°05'0 0.0
2016-Sep-05 02:33N 43°34' E 007°05'0 0.0
2016-Sep-05 01:33N 43°34' E 007°05'0 0.0
2016-Sep-05 00:33N 43°34' E 007°05'0 0.0
2016-Sep-04 23:33N 43°34' E 007°05'0 0.0
2016-Sep-04 22:33N 43°34' E 007°05'0 0.0
2016-Sep-04 21:33N 43°34' E 007°05'0 0.0
2016-Sep-04 20:33N 43°34' E 007°05'0 0.0
2016-Sep-04 19:33N 43°34' E 007°05'0 0.0
2016-Sep-04 18:33N 43°34' E 007°05'0 0.0
2016-Sep-04 17:33N 43°34' E 007°05'0 0.0
2016-Sep-04 16:33N 43°34' E 007°05'0 0.0
2016-Sep-04 15:33N 43°34' E 007°05'0 0.0
2016-Sep-04 14:33N 43°34' E 007°05'0 0.0
2016-Sep-04 13:33N 43°34' E 007°05'0 0.0
2016-Sep-04 12:33N 43°34' E 007°05'0 0.0
2016-Sep-04 11:33N 43°34' E 007°05'0 0.0
2016-Sep-04 10:33N 43°34' E 007°05'0 0.0
2016-Sep-04 09:33N 43°34' E 007°05'0 0.1
2016-Sep-04 08:33N 43°34' E 007°05'0 0.0
2016-Sep-04 07:33N 43°34' E 007°05'0 0.0
2016-Sep-04 06:33N 43°34' E 007°05'0 0.0
2016-Sep-04 04:33N 43°34' E 007°05'0 0.0
2016-Sep-04 03:33N 43°34' E 007°05'0 0.0
2016-Sep-04 02:33N 43°34' E 007°05'0 0.0
2016-Sep-04 01:33N 43°34' E 007°05'0 0.0
2016-Sep-04 00:33N 43°34' E 007°05'0 0.0
2016-Sep-03 23:33N 43°34' E 007°05'0 0.0
2016-Sep-03 22:33N 43°34' E 007°05'0 0.0
2016-Sep-03 21:33N 43°34' E 007°05'0 0.0
2016-Sep-03 20:33N 43°34' E 007°05'0 0.0
2016-Sep-03 19:33N 43°34' E 007°05'0 0.0
2016-Sep-03 18:33N 43°34' E 007°05'0 0.0
2016-Sep-03 17:33N 43°34' E 007°05'0 0.0
2016-Sep-03 16:33N 43°34' E 007°05'0 0.0
2016-Sep-03 15:33N 43°34' E 007°05'0 0.0
2016-Sep-03 14:33N 43°34' E 007°05'0 0.0
2016-Sep-03 13:33N 43°34' E 007°05'0 0.0
2016-Sep-03 12:33N 43°34' E 007°05'0 0.0
2016-Sep-03 11:33N 43°34' E 007°05'0 0.0
2016-Sep-03 10:33N 43°34' E 007°05'0 0.0
2016-Sep-03 09:33N 43°34' E 007°05'0 0.0
2016-Sep-03 08:33N 43°34' E 007°05'0 0.0
2016-Sep-03 07:33N 43°34' E 007°05'0 0.0
2016-Sep-03 06:33N 43°34' E 007°05'0 0.0
2016-Sep-03 05:33N 43°34' E 007°05'0 0.0
2016-Sep-03 04:33N 43°34' E 007°05'0 0.0
2016-Sep-03 03:32N 43°34' E 007°05'0 0.0
2016-Sep-03 02:33N 43°34' E 007°05'0 0.0
2016-Sep-03 01:33N 43°34' E 007°05'0 0.0
2016-Sep-03 00:33N 43°34' E 007°05'0 0.0
2016-Sep-02 23:33N 43°34' E 007°05'0 0.0
2016-Sep-02 22:33N 43°34' E 007°05'0 0.0
2016-Sep-02 21:33N 43°34' E 007°05'0 0.0
2016-Sep-02 20:33N 43°34' E 007°05'0 0.0
2016-Sep-02 19:33N 43°34' E 007°05'0 0.0
2016-Sep-02 18:33N 43°34' E 007°05'0 0.0
2016-Sep-02 17:32N 43°34' E 007°05'0 0.0
2016-Sep-02 16:33N 43°34' E 007°05'0 0.0
2016-Sep-02 15:33N 43°34' E 007°05'0 0.0
2016-Sep-02 14:33N 43°34' E 007°05'0 0.0
2016-Sep-02 13:33N 43°34' E 007°05'0 0.0
2016-Sep-02 12:33N 43°34' E 007°05'0 0.0
2016-Sep-02 11:33N 43°34' E 007°05'0 0.0
2016-Sep-02 10:33N 43°34' E 007°05'0 0.0
2016-Sep-02 09:33N 43°34' E 007°05'0 0.0
2016-Sep-02 08:33N 43°34' E 007°05'0 0.0
2016-Sep-02 07:33N 43°34' E 007°05'0 0.0
2016-Sep-02 06:33N 43°34' E 007°05'0 0.0
2016-Sep-02 05:33N 43°34' E 007°05'0 0.0
2016-Sep-02 04:33N 43°34' E 007°05'0 0.0
2016-Sep-02 03:33N 43°34' E 007°05'0 0.0
2016-Sep-02 02:33N 43°34' E 007°05'0 0.0
2016-Sep-02 01:33N 43°34' E 007°05'0 0.0
2016-Sep-02 00:33N 43°34' E 007°05'0 0.0
2016-Sep-01 23:33N 43°34' E 007°05'0 0.0
2016-Sep-01 22:33N 43°34' E 007°05'0 0.0
2016-Sep-01 21:33N 43°34' E 007°05'0 0.0
2016-Sep-01 20:33N 43°34' E 007°05'0 0.0
2016-Sep-01 19:33N 43°34' E 007°05'0 0.0
2016-Sep-01 18:33N 43°34' E 007°05'0 0.0
2016-Sep-01 17:33N 43°34' E 007°05'0 0.0
2016-Sep-01 16:33N 43°34' E 007°05'0 0.0
2016-Sep-01 15:33N 43°34' E 007°05'0 0.0
2016-Sep-01 14:33N 43°34' E 007°05'0 0.0
2016-Sep-01 13:33N 43°34' E 007°05'0 0.0
2016-Sep-01 12:33N 43°34' E 007°05'0 0.0
2016-Sep-01 11:33N 43°34' E 007°05'0 0.0
2016-Sep-01 10:33N 43°34' E 007°05'0 0.0
2016-Sep-01 09:33N 43°34' E 007°05'0 0.0
2016-Sep-01 08:33N 43°34' E 007°05'0 0.0
2016-Sep-01 07:33N 43°34' E 007°05'0 0.0
2016-Sep-01 06:33N 43°34' E 007°05'0 0.0
2016-Sep-01 05:33N 43°34' E 007°05'0 0.0
2016-Sep-01 04:32N 43°34' E 007°05'0 0.0
2016-Sep-01 03:33N 43°34' E 007°05'0 0.0
2016-Sep-01 02:33N 43°34' E 007°05'0 0.0
2016-Sep-01 01:33N 43°34' E 007°05'0 0.0
2016-Sep-01 00:33N 43°34' E 007°05'0 0.0
2016-Aug-31 23:33N 43°34' E 007°05'0 0.0
2016-Aug-31 22:33N 43°34' E 007°05'0 0.0
2016-Aug-31 21:33N 43°34' E 007°05'0 0.0
2016-Aug-31 20:33N 43°34' E 007°05'0 0.0
2016-Aug-31 19:33N 43°34' E 007°05'0 0.0
2016-Aug-31 18:33N 43°34' E 007°05'0 0.0
2016-Aug-31 17:33N 43°34' E 007°05'0 0.0
2016-Aug-31 16:33N 43°34' E 007°05'0 0.0
2016-Aug-31 15:33N 43°34' E 007°05'0 0.0
2016-Aug-31 14:33N 43°34' E 007°05'0 0.0
2016-Aug-31 13:33N 43°34' E 007°05'0 0.0
2016-Aug-31 12:33N 43°34' E 007°05'0 0.0
2016-Aug-31 11:33N 43°34' E 007°05'0 0.0
2016-Aug-31 10:33N 43°34' E 007°05'0 0.0
2016-Aug-31 09:33N 43°34' E 007°05'0 0.0
2016-Aug-31 08:33N 43°34' E 007°05'0 0.0
2016-Aug-31 07:32N 43°34' E 007°05'0 0.0
2016-Aug-31 06:33N 43°34' E 007°05'0 0.0
2016-Aug-31 05:33N 43°34' E 007°05'0 0.0
2016-Aug-31 04:33N 43°34' E 007°05'  
Track history (hours):
 
Tides and Currents Weather Stations Pressure Air Temp Water Temp Dewpoint Dewpoint Depression Visibility Wind Speed Wind Dir Waves Ship Positions

Waverunner

Last reported at 2016-Sep-10 04:15 UTC. Time now 2016-Dec-07 12:34 UTC.
Position N 42°34' E 008°19'.
Warning: this ship's position is months out of date.

Length 41 m; draft 2 m.

MMSI: 319804000.

Date/timePositionNaut miles runAvg speedWind from/ knotsBaromVisibWave heightAir tempDewpointWater temp
2016-Sep-10 04:15N 42°34' E 008°19'912.6
2016-Sep-10 03:33N 42°42' E 008°13'6712.9
2016-Sep-09 22:22N 43°40' E 007°30'5 0.5
2016-Sep-09 12:27N 43°45' E 007°27'0 0.0
2016-Sep-09 11:19N 43°45' E 007°27'0 0.0
2016-Sep-09 10:30N 43°45' E 007°27'6 6.3
2016-Sep-09 09:29N 43°40' E 007°20'1212.9
2016-Sep-09 08:33N 43°32' E 007°08'2 2.0
2016-Sep-09 07:33N 43°34' E 007°06'0 0.0
2016-Sep-09 06:33N 43°34' E 007°06'0 0.0
2016-Sep-09 05:33N 43°34' E 007°06'0 0.0
2016-Sep-09 04:33N 43°34' E 007°06'0 0.0
2016-Sep-09 03:33N 43°34' E 007°06'0 0.0
2016-Sep-09 02:33N 43°34' E 007°06'0 0.0
2016-Sep-09 01:33N 43°34' E 007°06'0 0.0
2016-Sep-09 00:33N 43°34' E 007°06'0 0.0
2016-Sep-08 23:33N 43°34' E 007°06'0 0.0
2016-Sep-08 22:33N 43°34' E 007°06'0 0.0
2016-Sep-08 21:33N 43°34' E 007°06'0 0.0
2016-Sep-08 20:33N 43°34' E 007°06'0 0.0
2016-Sep-08 19:33N 43°34' E 007°06'0 0.0
2016-Sep-08 18:33N 43°34' E 007°06'0 0.0
2016-Sep-08 17:33N 43°34' E 007°06'0 0.0
2016-Sep-08 16:33N 43°34' E 007°06'0 0.0
2016-Sep-08 15:34N 43°34' E 007°06'0 0.0
2016-Sep-08 14:33N 43°34' E 007°06'0 0.0
2016-Sep-08 13:33N 43°34' E 007°06'0 0.0
2016-Sep-08 12:33N 43°34' E 007°06'0 0.0
2016-Sep-08 11:33N 43°34' E 007°06'0 0.0
2016-Sep-08 10:33N 43°34' E 007°06'0 0.0
2016-Sep-08 09:33N 43°34' E 007°06'0 0.0
2016-Sep-08 08:33N 43°34' E 007°06'0 0.0
2016-Sep-08 07:33N 43°34' E 007°06'0 0.0
2016-Sep-08 06:33N 43°34' E 007°06'0 0.0
2016-Sep-08 05:33N 43°34' E 007°06'0 0.0
2016-Sep-08 04:33N 43°34' E 007°06'0 0.0
2016-Sep-08 03:33N 43°34' E 007°06'0 0.0
2016-Sep-08 02:33N 43°34' E 007°06'0 0.0
2016-Sep-08 01:33N 43°34' E 007°06'0 0.0
2016-Sep-08 00:34N 43°34' E 007°06'0 0.0
2016-Sep-07 23:33N 43°34' E 007°06'0 0.0
2016-Sep-07 22:33N 43°34' E 007°06'0 0.0
2016-Sep-07 21:33N 43°34' E 007°06'0 0.0
2016-Sep-07 20:33N 43°34' E 007°06'0 0.0
2016-Sep-07 19:33N 43°34' E 007°06'0 0.0
2016-Sep-07 18:33N 43°34' E 007°06'0 0.0
2016-Sep-07 17:33N 43°34' E 007°06'0 0.0
2016-Sep-07 16:33N 43°34' E 007°06'0 0.0
2016-Sep-07 15:33N 43°34' E 007°06'0 0.0
2016-Sep-07 14:33N 43°34' E 007°06'0 0.0
2016-Sep-07 13:33N 43°34' E 007°06'0 0.0
2016-Sep-07 12:33N 43°34' E 007°06'0 0.0
2016-Sep-07 11:33N 43°34' E 007°06'0 0.0
2016-Sep-07 10:33N 43°34' E 007°06'2 2.3
2016-Sep-07 09:33N 43°35' E 007°09'3 3.3
2016-Sep-07 08:33N 43°34' E 007°05'0 0.0
2016-Sep-07 07:33N 43°34' E 007°05'0 0.0
2016-Sep-07 06:33N 43°34' E 007°05'0 0.0
2016-Sep-07 04:33N 43°34' E 007°05'0 0.0
2016-Sep-07 03:33N 43°34' E 007°05'0 0.0
2016-Sep-07 02:33N 43°34' E 007°05'0 0.0
2016-Sep-07 01:33N 43°34' E 007°05'0 0.0
2016-Sep-07 00:33N 43°34' E 007°05'0 0.0
2016-Sep-06 23:33N 43°34' E 007°05'0 0.0
2016-Sep-06 22:33N 43°34' E 007°05'0 0.0
2016-Sep-06 21:33N 43°34' E 007°05'0 0.0
2016-Sep-06 20:33N 43°34' E 007°05'0 0.0
2016-Sep-06 19:33N 43°34' E 007°05'0 0.0
2016-Sep-06 18:33N 43°34' E 007°05'0 0.0
2016-Sep-06 17:33N 43°34' E 007°05'0 0.0
2016-Sep-06 16:33N 43°34' E 007°05'0 0.0
2016-Sep-06 15:33N 43°34' E 007°05'0 0.0
2016-Sep-06 14:33N 43°34' E 007°05'0 0.0
2016-Sep-06 13:33N 43°34' E 007°05'0 0.0
2016-Sep-06 12:33N 43°34' E 007°05'0 0.0
2016-Sep-06 11:33N 43°34' E 007°05'0 0.0
2016-Sep-06 10:34N 43°34' E 007°05'0 0.0
2016-Sep-06 09:33N 43°34' E 007°05'0 0.0
2016-Sep-06 08:33N 43°34' E 007°05'0 0.0
2016-Sep-06 07:33N 43°34' E 007°05'0 0.0
2016-Sep-06 06:33N 43°34' E 007°05'0 0.0
2016-Sep-06 04:33N 43°34' E 007°05'0 0.0
2016-Sep-06 03:33N 43°34' E 007°05'0 0.0
2016-Sep-06 02:33N 43°34' E 007°05'0 0.0
2016-Sep-06 01:33N 43°34' E 007°05'0 0.0
2016-Sep-06 00:33N 43°34' E 007°05'0 0.0
2016-Sep-05 23:33N 43°34' E 007°05'0 0.0
2016-Sep-05 22:33N 43°34' E 007°05'0 0.0
2016-Sep-05 21:33N 43°34' E 007°05'0 0.0
2016-Sep-05 20:33N 43°34' E 007°05'0 0.0
2016-Sep-05 19:33N 43°34' E 007°05'0 0.0
2016-Sep-05 18:33N 43°34' E 007°05'0 0.0
2016-Sep-05 17:33N 43°34' E 007°05'0 0.0
2016-Sep-05 16:33N 43°34' E 007°05'0 0.0
2016-Sep-05 15:33N 43°34' E 007°05'0 0.0
2016-Sep-05 14:33N 43°34' E 007°05'0 0.0
2016-Sep-05 13:33N 43°34' E 007°05'0 0.0
2016-Sep-05 12:33N 43°34' E 007°05'0 0.0
2016-Sep-05 11:33N 43°34' E 007°05'0 0.0
2016-Sep-05 10:33N 43°34' E 007°05'0 0.0
2016-Sep-05 09:33N 43°34' E 007°05'0 0.0
2016-Sep-05 08:33N 43°34' E 007°05'0 0.0
2016-Sep-05 07:33N 43°34' E 007°05'0 0.0
2016-Sep-05 06:33N 43°34' E 007°05'0 0.0
2016-Sep-05 04:33N 43°34' E 007°05'0 0.0
2016-Sep-05 03:33N 43°34' E 007°05'0 0.0
2016-Sep-05 02:33N 43°34' E 007°05'0 0.0
2016-Sep-05 01:33N 43°34' E 007°05'0 0.0
2016-Sep-05 00:33N 43°34' E 007°05'0 0.0
2016-Sep-04 23:33N 43°34' E 007°05'0 0.0
2016-Sep-04 22:33N 43°34' E 007°05'0 0.0
2016-Sep-04 21:33N 43°34' E 007°05'0 0.0
2016-Sep-04 20:33N 43°34' E 007°05'0 0.0
2016-Sep-04 19:33N 43°34' E 007°05'0 0.0
2016-Sep-04 18:33N 43°34' E 007°05'0 0.0
2016-Sep-04 17:33N 43°34' E 007°05'0 0.0
2016-Sep-04 16:33N 43°34' E 007°05'0 0.0
2016-Sep-04 15:33N 43°34' E 007°05'0 0.0
2016-Sep-04 14:33N 43°34' E 007°05'0 0.0
2016-Sep-04 13:33N 43°34' E 007°05'0 0.0
2016-Sep-04 12:33N 43°34' E 007°05'0 0.0
2016-Sep-04 11:33N 43°34' E 007°05'0 0.0
2016-Sep-04 10:33N 43°34' E 007°05'0 0.0
2016-Sep-04 09:33N 43°34' E 007°05'0 0.1
2016-Sep-04 08:33N 43°34' E 007°05'0 0.0
2016-Sep-04 07:33N 43°34' E 007°05'0 0.0
2016-Sep-04 06:33N 43°34' E 007°05'0 0.0
2016-Sep-04 04:33N 43°34' E 007°05'0 0.0
2016-Sep-04 03:33N 43°34' E 007°05'0 0.0
2016-Sep-04 02:33N 43°34' E 007°05'0 0.0
2016-Sep-04 01:33N 43°34' E 007°05'0 0.0
2016-Sep-04 00:33N 43°34' E 007°05'0 0.0
2016-Sep-03 23:33N 43°34' E 007°05'0 0.0
2016-Sep-03 22:33N 43°34' E 007°05'0 0.0
2016-Sep-03 21:33N 43°34' E 007°05'0 0.0
2016-Sep-03 20:33N 43°34' E 007°05'0 0.0
2016-Sep-03 19:33N 43°34' E 007°05'0 0.0
2016-Sep-03 18:33N 43°34' E 007°05'0 0.0
2016-Sep-03 17:33N 43°34' E 007°05'0 0.0
2016-Sep-03 16:33N 43°34' E 007°05'0 0.0
2016-Sep-03 15:33N 43°34' E 007°05'0 0.0
2016-Sep-03 14:33N 43°34' E 007°05'0 0.0
2016-Sep-03 13:33N 43°34' E 007°05'0 0.0
2016-Sep-03 12:33N 43°34' E 007°05'0 0.0
2016-Sep-03 11:33N 43°34' E 007°05'0 0.0
2016-Sep-03 10:33N 43°34' E 007°05'0 0.0
2016-Sep-03 09:33N 43°34' E 007°05'0 0.0
2016-Sep-03 08:33N 43°34' E 007°05'0 0.0
2016-Sep-03 07:33N 43°34' E 007°05'0 0.0
2016-Sep-03 06:33N 43°34' E 007°05'0 0.0
2016-Sep-03 05:33N 43°34' E 007°05'0 0.0
2016-Sep-03 04:33N 43°34' E 007°05'0 0.0
2016-Sep-03 03:32N 43°34' E 007°05'0 0.0
2016-Sep-03 02:33N 43°34' E 007°05'0 0.0
2016-Sep-03 01:33N 43°34' E 007°05'0 0.0
2016-Sep-03 00:33N 43°34' E 007°05'0 0.0
2016-Sep-02 23:33N 43°34' E 007°05'0 0.0
2016-Sep-02 22:33N 43°34' E 007°05'0 0.0
2016-Sep-02 21:33N 43°34' E 007°05'0 0.0
2016-Sep-02 20:33N 43°34' E 007°05'0 0.0
2016-Sep-02 19:33N 43°34' E 007°05'0 0.0
2016-Sep-02 18:33N 43°34' E 007°05'0 0.0
2016-Sep-02 17:32N 43°34' E 007°05'0 0.0
2016-Sep-02 16:33N 43°34' E 007°05'0 0.0
2016-Sep-02 15:33N 43°34' E 007°05'0 0.0
2016-Sep-02 14:33N 43°34' E 007°05'0 0.0
2016-Sep-02 13:33N 43°34' E 007°05'0 0.0
2016-Sep-02 12:33N 43°34' E 007°05'0 0.0
2016-Sep-02 11:33N 43°34' E 007°05'0 0.0
2016-Sep-02 10:33N 43°34' E 007°05'0 0.0
2016-Sep-02 09:33N 43°34' E 007°05'0 0.0
2016-Sep-02 08:33N 43°34' E 007°05'0 0.0
2016-Sep-02 07:33N 43°34' E 007°05'0 0.0
2016-Sep-02 06:33N 43°34' E 007°05'0 0.0
2016-Sep-02 05:33N 43°34' E 007°05'0 0.0
2016-Sep-02 04:33N 43°34' E 007°05'0 0.0
2016-Sep-02 03:33N 43°34' E 007°05'0 0.0
2016-Sep-02 02:33N 43°34' E 007°05'0 0.0
2016-Sep-02 01:33N 43°34' E 007°05'0 0.0
2016-Sep-02 00:33N 43°34' E 007°05'0 0.0
2016-Sep-01 23:33N 43°34' E 007°05'0 0.0
2016-Sep-01 22:33N 43°34' E 007°05'0 0.0
2016-Sep-01 21:33N 43°34' E 007°05'0 0.0
2016-Sep-01 20:33N 43°34' E 007°05'0 0.0
2016-Sep-01 19:33N 43°34' E 007°05'0 0.0
2016-Sep-01 18:33N 43°34' E 007°05'0 0.0
2016-Sep-01 17:33N 43°34' E 007°05'0 0.0
2016-Sep-01 16:33N 43°34' E 007°05'0 0.0
2016-Sep-01 15:33N 43°34' E 007°05'0 0.0
2016-Sep-01 14:33N 43°34' E 007°05'0 0.0
2016-Sep-01 13:33N 43°34' E 007°05'0 0.0
2016-Sep-01 12:33N 43°34' E 007°05'0 0.0
2016-Sep-01 11:33N 43°34' E 007°05'0 0.0
2016-Sep-01 10:33N 43°34' E 007°05'0 0.0
2016-Sep-01 09:33N 43°34' E 007°05'0 0.0
2016-Sep-01 08:33N 43°34' E 007°05'0 0.0
2016-Sep-01 07:33N 43°34' E 007°05'0 0.0
2016-Sep-01 06:33N 43°34' E 007°05'0 0.0
2016-Sep-01 05:33N 43°34' E 007°05'0 0.0
2016-Sep-01 04:32N 43°34' E 007°05'0 0.0
2016-Sep-01 03:33N 43°34' E 007°05'0 0.0
2016-Sep-01 02:33N 43°34' E 007°05'0 0.0
2016-Sep-01 01:33N 43°34' E 007°05'0 0.0
2016-Sep-01 00:33N 43°34' E 007°05'0 0.0
2016-Aug-31 23:33N 43°34' E 007°05'0 0.0
2016-Aug-31 22:33N 43°34' E 007°05'0 0.0
2016-Aug-31 21:33N 43°34' E 007°05'0 0.0
2016-Aug-31 20:33N 43°34' E 007°05'0 0.0
2016-Aug-31 19:33N 43°34' E 007°05'0 0.0
2016-Aug-31 18:33N 43°34' E 007°05'0 0.0
2016-Aug-31 17:33N 43°34' E 007°05'0 0.0
2016-Aug-31 16:33N 43°34' E 007°05'0 0.0
2016-Aug-31 15:33N 43°34' E 007°05'0 0.0
2016-Aug-31 14:33N 43°34' E 007°05'0 0.0
2016-Aug-31 13:33N 43°34' E 007°05'0 0.0
2016-Aug-31 12:33N 43°34' E 007°05'0 0.0
2016-Aug-31 11:33N 43°34' E 007°05'0 0.0
2016-Aug-31 10:33N 43°34' E 007°05'0 0.0
2016-Aug-31 09:33N 43°34' E 007°05'0 0.0
2016-Aug-31 08:33N 43°34' E 007°05'0 0.0
2016-Aug-31 07:32N 43°34' E 007°05'0 0.0
2016-Aug-31 06:33N 43°34' E 007°05'0 0.0
2016-Aug-31 05:33N 43°34' E 007°05'0 0.0
2016-Aug-31 04:33N 43°34' E 007°05'  

Dump ship's entire track history